createdAt,value
2018-05-26T00:01:14.320Z,7.00
2018-05-26T00:03:41.778Z,6.40
2018-05-26T00:06:09.232Z,6.40
2018-05-26T00:08:36.799Z,5.78
2018-05-26T00:11:04.279Z,5.80
2018-05-26T00:13:31.941Z,6.23
2018-05-26T00:15:59.384Z,6.03
2018-05-26T00:18:26.819Z,6.90
2018-05-26T00:20:54.275Z,5.77
2018-05-26T00:23:21.709Z,5.90
2018-05-26T00:25:49.950Z,6.03
2018-05-26T00:28:17.383Z,6.33
2018-05-26T00:30:44.847Z,5.72
2018-05-26T00:33:12.301Z,6.20
2018-05-26T00:35:39.749Z,6.30
2018-05-26T00:38:07.188Z,6.20
2018-05-26T00:40:34.658Z,6.23
2018-05-26T00:43:02.084Z,7.17
2018-05-26T00:45:30.302Z,6.40
2018-05-26T00:47:57.776Z,7.07
2018-05-26T00:50:25.241Z,7.50
2018-05-26T00:52:52.689Z,6.73
2018-05-26T00:55:20.135Z,6.80
2018-05-26T00:57:47.600Z,7.70
2018-05-26T01:00:15.059Z,6.57
2018-05-26T01:02:42.763Z,6.75
2018-05-26T01:05:10.984Z,7.00
2018-05-26T01:07:38.440Z,7.20
2018-05-26T01:10:05.891Z,6.00
2018-05-26T01:12:33.350Z,6.53
2018-05-26T01:15:00.827Z,6.93
2018-05-26T01:17:28.261Z,6.63
2018-05-26T01:19:55.700Z,6.10
2018-05-26T01:22:23.155Z,7.27
2018-05-26T01:24:50.637Z,6.00
2018-05-26T01:27:18.087Z,6.93
2018-05-26T01:29:45.533Z,6.90
2018-05-26T01:32:12.996Z,6.90
2018-05-26T01:34:40.464Z,7.20
2018-05-26T01:37:07.917Z,6.35
2018-05-26T01:39:35.367Z,6.93
2018-05-26T01:42:02.827Z,6.73
2018-05-26T01:44:30.282Z,6.70
2018-05-26T01:46:57.756Z,6.50
2018-05-26T01:49:25.232Z,6.63
2018-05-26T01:51:52.680Z,6.63
2018-05-26T01:54:20.175Z,6.40
2018-05-26T01:56:54.119Z,6.67
2018-05-26T01:59:21.588Z,7.57
2018-05-26T02:01:49.037Z,6.70
2018-05-26T02:04:16.540Z,6.50
2018-05-26T02:06:43.971Z,6.60
2018-05-26T02:09:11.427Z,5.93
2018-05-26T02:11:38.857Z,6.37
2018-05-26T02:14:06.307Z,6.30
2018-05-26T02:16:34.520Z,6.87
2018-05-26T02:19:01.963Z,6.77
2018-05-26T02:21:29.421Z,6.37
2018-05-26T02:23:56.880Z,6.50
2018-05-26T02:26:24.326Z,6.70
2018-05-26T02:28:51.772Z,6.53
2018-05-26T02:31:19.253Z,6.33
2018-05-26T02:33:46.684Z,6.73
2018-05-26T02:36:14.944Z,6.63
2018-05-26T02:38:42.345Z,6.80
2018-05-26T02:41:10.564Z,6.00
2018-05-26T02:43:38.023Z,6.97
2018-05-26T02:46:05.473Z,6.77
2018-05-26T02:48:33.688Z,6.73
2018-05-26T02:51:01.117Z,6.27
2018-05-26T02:53:29.339Z,6.60
2018-05-26T02:55:56.793Z,5.60
2018-05-26T02:58:24.248Z,6.30
2018-05-26T03:00:51.713Z,6.00
2018-05-26T03:03:19.135Z,6.80
2018-05-26T03:05:53.144Z,6.43
2018-05-26T03:08:27.099Z,6.73
2018-05-26T03:11:00.290Z,6.90
2018-05-26T03:13:33.412Z,6.30
2018-05-26T03:29:25.269Z,5.80
2018-05-26T03:31:53.639Z,8.10
2018-05-26T03:34:21.851Z,6.23
2018-05-26T03:36:49.299Z,6.17
2018-05-26T03:39:16.758Z,6.60
2018-05-26T03:41:44.196Z,6.90
2018-05-26T03:44:11.635Z,6.90
2018-05-26T03:46:39.851Z,7.00
2018-05-26T03:49:07.287Z,6.80
2018-05-26T03:51:34.735Z,6.20
2018-05-26T03:54:02.756Z,6.00
2018-05-26T03:56:42.149Z,5.97
2018-05-26T03:59:17.459Z,6.60
2018-05-26T04:01:44.920Z,6.40
2018-05-26T04:04:12.371Z,7.30
2018-05-26T04:06:39.824Z,5.90
2018-05-26T04:09:07.284Z,7.23
2018-05-26T04:11:36.230Z,6.45
2018-05-26T04:14:03.660Z,6.77
2018-05-26T04:16:31.161Z,6.87
2018-05-26T04:18:58.583Z,7.23
2018-05-26T04:21:26.038Z,6.50
2018-05-26T04:23:53.482Z,6.43
2018-05-26T04:26:21.680Z,6.90
2018-05-26T04:28:49.129Z,7.00
2018-05-26T04:31:16.572Z,7.57
2018-05-26T04:33:44.783Z,7.60
2018-05-26T04:36:12.231Z,6.10
2018-05-26T04:38:39.694Z,6.70
2018-05-26T04:41:07.139Z,7.43
2018-05-26T04:43:34.591Z,6.17
2018-05-26T04:46:02.056Z,6.30
2018-05-26T04:48:31.568Z,7.00
2018-05-26T04:50:59.018Z,6.73
2018-05-26T04:53:26.459Z,6.80
2018-05-26T04:55:54.663Z,6.83
2018-05-26T04:58:22.125Z,7.23
2018-05-26T05:00:49.578Z,7.22
2018-05-26T05:03:17.003Z,6.70
2018-05-26T05:05:45.250Z,6.87
2018-05-26T05:08:12.645Z,7.63
2018-05-26T05:10:40.667Z,6.77
2018-05-26T05:13:08.115Z,7.00
2018-05-26T05:15:35.548Z,7.17
2018-05-26T05:18:03.003Z,6.97
2018-05-26T05:20:30.448Z,7.23
2018-05-26T05:22:57.895Z,8.20
2018-05-26T05:25:25.372Z,18.87
2018-05-26T05:27:52.837Z,6.80
2018-05-26T05:30:20.284Z,6.93
2018-05-26T05:32:47.722Z,7.20
2018-05-26T05:35:15.935Z,6.53
2018-05-26T05:37:43.381Z,7.27
2018-05-26T05:40:10.808Z,6.93
2018-05-26T05:42:38.252Z,6.80
2018-05-26T05:45:06.480Z,6.53
2018-05-26T05:47:33.920Z,7.00
2018-05-26T05:50:01.365Z,7.27
2018-05-26T05:52:28.815Z,6.73
2018-05-26T05:54:56.269Z,7.30
2018-05-26T05:57:24.498Z,7.07
2018-05-26T05:59:52.758Z,7.80
2018-05-26T06:02:20.916Z,8.10
2018-05-26T06:04:48.360Z,7.60
2018-05-26T06:07:16.580Z,8.52
2018-05-26T06:09:44.013Z,7.70
2018-05-26T06:12:11.452Z,8.10
2018-05-26T06:14:38.892Z,9.10
2018-05-26T06:17:07.107Z,9.90
2018-05-26T06:19:34.563Z,12.20
2018-05-26T06:22:02.027Z,13.77
2018-05-26T06:24:29.487Z,12.23
2018-05-26T06:26:56.941Z,13.70
2018-05-26T06:29:24.403Z,11.43
2018-05-26T06:31:51.969Z,12.67
2018-05-26T06:34:19.302Z,11.00
2018-05-26T06:36:47.541Z,12.03
2018-05-26T06:39:15.756Z,11.10
2018-05-26T06:41:43.227Z,10.07
2018-05-26T06:44:10.689Z,11.32
2018-05-26T06:46:38.213Z,10.67
2018-05-26T06:49:05.613Z,12.60
2018-05-26T06:51:33.051Z,10.88
2018-05-26T06:54:00.507Z,11.00
2018-05-26T06:56:27.959Z,10.37
2018-05-26T06:58:55.409Z,10.40
2018-05-26T07:01:22.868Z,9.43
2018-05-26T07:03:50.321Z,9.80
2018-05-26T07:06:17.775Z,9.20
2018-05-26T07:08:45.225Z,8.33
2018-05-26T07:11:12.688Z,10.13
2018-05-26T07:13:40.127Z,10.55
2018-05-26T07:16:07.590Z,10.00
2018-05-26T07:18:35.051Z,9.70
2018-05-26T07:21:02.487Z,9.37
2018-05-26T07:23:30.723Z,9.47
2018-05-26T07:25:58.196Z,9.40
2018-05-26T07:28:25.664Z,9.47
2018-05-26T07:30:53.095Z,8.93
2018-05-26T07:33:20.529Z,8.20
2018-05-26T07:35:47.968Z,9.00
2018-05-26T07:38:15.440Z,9.97
2018-05-26T07:40:42.883Z,9.20
2018-05-26T07:43:10.353Z,7.90
2018-05-26T07:45:37.779Z,7.17
2018-05-26T07:48:06.000Z,6.07
2018-05-26T07:50:33.455Z,5.70
2018-05-26T07:53:00.887Z,5.40
2018-05-26T07:55:28.334Z,5.10
2018-05-26T07:57:55.783Z,4.83
2018-05-26T08:00:24.037Z,5.93
2018-05-26T08:02:51.425Z,5.73
2018-05-26T08:05:18.884Z,4.90
2018-05-26T08:07:47.078Z,5.40
2018-05-26T08:10:14.536Z,4.55
2018-05-26T08:12:41.964Z,4.97
2018-05-26T08:15:10.176Z,4.57
2018-05-26T08:17:37.642Z,4.10
2018-05-26T08:20:05.628Z,4.10
2018-05-26T08:22:33.096Z,4.50
2018-05-26T08:25:00.532Z,4.53
2018-05-26T08:27:27.956Z,4.63
2018-05-26T08:29:55.420Z,4.57
2018-05-26T08:32:22.847Z,4.73
2018-05-26T08:34:51.080Z,4.57
2018-05-26T08:37:18.524Z,4.97
2018-05-26T08:39:45.980Z,4.60
2018-05-26T08:42:14.587Z,5.50
2018-05-26T08:44:42.031Z,5.00
2018-05-26T08:47:09.471Z,4.47
2018-05-26T08:49:36.925Z,4.77
2018-05-26T08:52:04.364Z,4.80
2018-05-26T08:54:31.826Z,5.73
2018-05-26T08:56:59.268Z,4.30
2018-05-26T08:59:27.488Z,4.78
2018-05-26T09:01:54.929Z,4.87
2018-05-26T09:04:22.380Z,4.30
2018-05-26T09:06:49.860Z,4.67
2018-05-26T09:09:17.326Z,4.20
2018-05-26T09:11:44.755Z,4.50
2018-05-26T09:14:12.208Z,4.57
2018-05-26T09:16:39.644Z,5.10
2018-05-26T09:19:07.894Z,4.50
2018-05-26T09:21:35.332Z,5.10
2018-05-26T09:24:02.790Z,4.80
2018-05-26T09:26:30.221Z,4.43
2018-05-26T09:28:57.680Z,5.28
2018-05-26T09:31:25.254Z,3.97
2018-05-26T09:33:52.676Z,4.70
2018-05-26T09:36:20.127Z,4.73
2018-05-26T09:38:47.576Z,4.05
2018-05-26T09:41:15.793Z,4.40
2018-05-26T09:43:43.263Z,4.00
2018-05-26T09:46:11.466Z,4.20
2018-05-26T09:48:38.900Z,4.67
2018-05-26T09:51:13.793Z,3.80
2018-05-26T09:53:41.250Z,4.40
2018-05-26T09:56:08.750Z,3.90
2018-05-26T09:58:36.912Z,3.60
2018-05-26T10:01:04.357Z,4.12
2018-05-26T10:03:31.781Z,4.30
2018-05-26T10:05:59.245Z,4.43
2018-05-26T10:08:26.708Z,5.00
2018-05-26T10:10:54.138Z,6.90
2018-05-26T10:13:22.352Z,3.83
2018-05-26T10:15:50.000Z,4.20
2018-05-26T10:18:17.456Z,4.00
2018-05-26T10:20:44.903Z,4.63
2018-05-26T10:23:13.130Z,4.65
2018-05-26T10:25:40.583Z,3.90
2018-05-26T10:28:08.009Z,4.40
2018-05-26T10:30:35.459Z,4.00
2018-05-26T10:33:02.895Z,4.60
2018-05-26T10:35:31.162Z,4.10
2018-05-26T10:37:58.547Z,4.13
2018-05-26T10:40:26.003Z,4.37
2018-05-26T10:42:53.436Z,3.77
2018-05-26T10:45:33.487Z,4.18
2018-05-26T10:48:01.704Z,4.10
2018-05-26T10:50:29.151Z,4.27
2018-05-26T10:52:56.595Z,4.13
2018-05-26T10:55:24.057Z,4.43
2018-05-26T10:57:52.247Z,4.40
2018-05-26T11:00:19.711Z,3.90
2018-05-26T11:02:47.168Z,3.77
2018-05-26T11:05:14.611Z,4.47
2018-05-26T11:07:42.046Z,4.85
2018-05-26T11:10:10.259Z,4.60
2018-05-26T11:12:37.701Z,3.60
2018-05-26T11:15:05.146Z,3.80
2018-05-26T11:17:32.583Z,3.63
2018-05-26T11:20:00.827Z,3.80
2018-05-26T11:22:28.259Z,3.73
2018-05-26T11:24:55.695Z,3.43
2018-05-26T11:27:23.152Z,3.83
2018-05-26T11:29:50.626Z,3.67
2018-05-26T11:32:18.059Z,3.30
2018-05-26T11:34:46.259Z,3.13
2018-05-26T11:37:13.712Z,3.73
2018-05-26T11:39:41.164Z,4.07
2018-05-26T11:42:08.605Z,3.63
2018-05-26T11:44:36.823Z,3.47
2018-05-26T11:47:04.257Z,3.33
2018-05-26T11:49:31.709Z,3.73
2018-05-26T11:51:59.143Z,3.25
2018-05-26T11:54:27.364Z,3.57
2018-05-26T11:56:54.828Z,3.27
2018-05-26T11:59:22.272Z,3.83
2018-05-26T12:01:50.696Z,3.73
2018-05-26T12:04:18.097Z,3.50
2018-05-26T12:06:45.539Z,3.37
2018-05-26T12:09:13.003Z,3.47
2018-05-26T12:11:40.510Z,3.40
2018-05-26T12:14:07.964Z,3.12
2018-05-26T12:16:35.404Z,3.60
2018-05-26T12:19:02.856Z,4.10
2018-05-26T12:21:30.302Z,3.80
2018-05-26T12:23:57.772Z,4.73
2018-05-26T12:26:25.215Z,3.50
2018-05-26T12:28:52.644Z,3.83
2018-05-26T12:31:20.980Z,3.30
2018-05-26T12:33:48.426Z,4.27
2018-05-26T12:36:15.892Z,2.97
2018-05-26T12:38:43.352Z,3.00
2018-05-26T12:41:10.797Z,3.20
2018-05-26T12:43:38.255Z,3.17
2018-05-26T12:46:05.704Z,2.90
2018-05-26T12:48:33.155Z,3.37
2018-05-26T12:51:00.604Z,3.40
2018-05-26T12:53:28.063Z,2.90
2018-05-26T12:55:55.535Z,3.10
2018-05-26T12:58:23.002Z,3.47
2018-05-26T13:00:50.439Z,3.20
2018-05-26T13:03:17.895Z,3.10
2018-05-26T13:05:45.377Z,3.27
2018-05-26T13:08:12.820Z,3.53
2018-05-26T13:10:40.297Z,3.23
2018-05-26T13:13:07.774Z,3.20
2018-05-26T13:15:35.229Z,3.87
2018-05-26T13:18:02.693Z,3.53
2018-05-26T13:20:30.147Z,3.10
2018-05-26T13:22:57.600Z,3.10
2018-05-26T13:25:25.055Z,3.30
2018-05-26T13:27:52.488Z,3.00
2018-05-26T13:30:19.939Z,3.93
2018-05-26T13:32:47.379Z,3.40
2018-05-26T13:35:14.854Z,3.77
2018-05-26T13:37:42.274Z,3.13
2018-05-26T13:40:10.499Z,2.80
2018-05-26T13:42:37.971Z,3.53
2018-05-26T13:45:05.405Z,3.57
2018-05-26T13:47:32.856Z,3.23
2018-05-26T13:50:00.294Z,3.40
2018-05-26T13:52:27.773Z,3.12
2018-05-26T13:54:55.247Z,3.55
2018-05-26T13:57:23.429Z,3.77
2018-05-26T13:59:50.896Z,3.43
2018-05-26T14:02:18.335Z,3.37
2018-05-26T14:04:47.408Z,3.33
2018-05-26T14:07:14.882Z,3.10
2018-05-26T14:09:42.330Z,3.43
2018-05-26T14:12:09.768Z,3.20
2018-05-26T14:14:37.212Z,3.00
2018-05-26T14:17:04.651Z,3.50
2018-05-26T14:19:32.887Z,2.93
2018-05-26T14:22:00.345Z,3.60
2018-05-26T14:24:27.794Z,3.57
2018-05-26T14:26:55.250Z,3.70
2018-05-26T14:29:22.679Z,3.47
2018-05-26T14:32:09.928Z,3.20
2018-05-26T14:34:37.391Z,3.10
2018-05-26T14:37:04.836Z,3.37
2018-05-26T14:39:32.288Z,3.93
2018-05-26T14:41:59.719Z,4.10
2018-05-26T14:44:27.179Z,3.53
2018-05-26T14:46:54.648Z,3.60
2018-05-26T14:49:22.088Z,3.50
2018-05-26T14:51:49.527Z,5.17
2018-05-26T14:54:17.764Z,4.57
2018-05-26T14:56:45.212Z,3.67
2018-05-26T14:59:12.770Z,3.50
2018-05-26T15:01:40.211Z,3.70
2018-05-26T15:04:07.673Z,3.90
2018-05-26T15:06:35.133Z,4.23
2018-05-26T15:09:02.587Z,2.70
2018-05-26T15:11:30.047Z,4.10
2018-05-26T15:13:57.500Z,3.57
2018-05-26T15:16:24.961Z,3.83
2018-05-26T15:18:52.418Z,3.20
2018-05-26T15:21:20.808Z,3.40
2018-05-26T15:23:48.260Z,5.03
2018-05-26T15:26:15.720Z,4.00
2018-05-26T15:28:43.172Z,4.80
2018-05-26T15:31:10.612Z,4.40
2018-05-26T15:33:38.083Z,4.75
2018-05-26T15:36:05.516Z,6.57
2018-05-26T15:38:32.967Z,5.20
2018-05-26T15:41:01.196Z,4.50
2018-05-26T15:43:28.659Z,4.60
2018-05-26T15:45:56.104Z,4.03
2018-05-26T15:48:23.551Z,4.10
2018-05-26T15:50:57.205Z,4.60
2018-05-26T15:53:24.660Z,3.90
2018-05-26T15:55:52.098Z,5.57
2018-05-26T15:58:19.555Z,4.03
2018-05-26T16:00:46.992Z,5.00
2018-05-26T16:03:14.447Z,3.63
2018-05-26T16:05:41.904Z,4.40
2018-05-26T16:08:09.368Z,4.40
2018-05-26T16:10:37.563Z,4.17
2018-05-26T16:13:05.020Z,5.40
2018-05-26T16:15:32.458Z,5.43
2018-05-26T16:17:59.927Z,5.60
2018-05-26T16:20:27.367Z,4.60
2018-05-26T16:22:54.843Z,8.10
2018-05-26T16:25:22.271Z,5.63
2018-05-26T16:27:53.034Z,4.62
2018-05-26T16:30:20.479Z,5.97
2018-05-26T16:32:47.943Z,4.93
2018-05-26T16:35:15.380Z,5.80
2018-05-26T16:37:42.832Z,5.00
2018-05-26T16:40:10.277Z,5.28
2018-05-26T16:42:37.730Z,5.77
2018-05-26T16:45:05.204Z,4.87
2018-05-26T16:47:32.641Z,4.20
2018-05-26T16:50:00.667Z,4.63
2018-05-26T16:52:28.110Z,5.43
2018-05-26T16:54:55.571Z,5.43
2018-05-26T16:57:23.024Z,3.70
2018-05-26T16:59:50.476Z,3.70
2018-05-26T17:02:17.928Z,3.50
2018-05-26T17:04:45.378Z,4.00
2018-05-26T17:07:18.604Z,3.77
2018-05-26T17:09:46.132Z,3.70
2018-05-26T17:12:13.577Z,4.17
2018-05-26T17:14:41.038Z,3.80
2018-05-26T17:17:08.524Z,3.50
2018-05-26T17:19:35.999Z,3.80
2018-05-26T17:22:03.475Z,4.03
2018-05-26T17:24:31.687Z,3.97
2018-05-26T17:26:59.137Z,3.87
2018-05-26T17:29:26.572Z,3.43
2018-05-26T17:31:54.797Z,3.63
2018-05-26T17:34:22.254Z,3.60
2018-05-26T17:36:49.692Z,3.73
2018-05-26T17:39:17.143Z,4.50
2018-05-26T17:41:44.587Z,4.30
2018-05-26T17:44:12.808Z,3.93
2018-05-26T17:46:40.244Z,3.50
2018-05-26T17:49:07.719Z,3.60
2018-05-26T17:51:35.199Z,4.03
2018-05-26T17:54:02.651Z,3.70
2018-05-26T17:56:30.742Z,4.23
2018-05-26T17:58:58.978Z,3.87
2018-05-26T18:01:26.420Z,3.77
2018-05-26T18:03:53.887Z,3.80
2018-05-26T18:06:21.341Z,3.93
2018-05-26T18:08:48.777Z,4.57
2018-05-26T18:11:16.399Z,4.70
2018-05-26T18:13:43.858Z,3.87
2018-05-26T18:16:12.061Z,4.23
2018-05-26T18:18:39.691Z,4.10
2018-05-26T18:21:07.158Z,3.97
2018-05-26T18:23:35.371Z,4.87
2018-05-26T18:26:02.907Z,4.27
2018-05-26T18:28:30.300Z,4.50
2018-05-26T18:30:57.746Z,4.90
2018-05-26T18:33:25.188Z,4.80
2018-05-26T18:35:52.618Z,4.57
2018-05-26T18:38:20.845Z,4.27
2018-05-26T18:40:48.755Z,5.13
2018-05-26T18:43:16.188Z,5.13
2018-05-26T18:45:43.638Z,5.30
2018-05-26T18:48:11.093Z,5.23
2018-05-26T18:50:38.531Z,5.43
2018-05-26T18:53:06.003Z,5.22
2018-05-26T18:55:33.449Z,4.60
2018-05-26T18:58:00.891Z,4.70
2018-05-26T19:00:28.336Z,5.50
2018-05-26T19:02:55.821Z,5.03
2018-05-26T19:05:23.248Z,5.50
2018-05-26T19:07:50.685Z,5.30
2018-05-26T19:10:18.908Z,5.17
2018-05-26T19:12:46.358Z,4.90
2018-05-26T19:15:23.467Z,5.10
2018-05-26T19:17:50.907Z,5.70
2018-05-26T19:20:18.370Z,7.73
2018-05-26T19:22:45.815Z,7.00
2018-05-26T19:25:13.276Z,6.32
2018-05-26T19:27:40.719Z,5.30
2018-05-26T19:30:08.172Z,5.90
2018-05-26T19:32:35.603Z,5.43
2018-05-26T19:35:03.835Z,5.50
2018-05-26T19:37:31.300Z,5.37
2018-05-26T19:39:58.727Z,5.60
2018-05-26T19:42:26.171Z,5.50
2018-05-26T19:44:53.624Z,5.00
2018-05-26T19:47:21.070Z,5.93
2018-05-26T19:49:49.315Z,5.60
2018-05-26T19:52:16.766Z,5.77
2018-05-26T19:54:44.200Z,4.90
2018-05-26T19:57:11.645Z,4.93
2018-05-26T19:59:39.106Z,5.63
2018-05-26T20:02:06.558Z,6.07
2018-05-26T20:04:34.010Z,5.50
2018-05-26T20:07:01.468Z,5.80
2018-05-26T20:09:28.923Z,6.40
2018-05-26T20:11:56.420Z,6.43
2018-05-26T20:14:23.831Z,5.63
2018-05-26T20:16:51.289Z,5.73
2018-05-26T20:19:18.819Z,5.17
2018-05-26T20:21:46.971Z,5.57
2018-05-26T20:24:14.435Z,6.20
2018-05-26T20:26:41.874Z,6.40
2018-05-26T20:29:09.317Z,5.43
2018-05-26T20:31:36.767Z,6.23
2018-05-26T20:34:04.216Z,6.00
2018-05-26T20:36:31.660Z,5.67
2018-05-26T20:38:59.902Z,6.33
2018-05-26T20:41:27.341Z,5.60
2018-05-26T20:43:54.806Z,6.30
2018-05-26T20:46:22.242Z,6.23
2018-05-26T20:48:49.724Z,6.17
2018-05-26T20:51:17.163Z,6.63
2018-05-26T20:53:44.630Z,6.28
2018-05-26T20:56:12.059Z,7.00
2018-05-26T20:58:39.524Z,6.50
2018-05-26T21:01:06.959Z,6.50
2018-05-26T21:03:34.407Z,6.97
2018-05-26T21:06:02.640Z,7.47
2018-05-26T21:08:30.096Z,7.20
2018-05-26T21:10:57.550Z,6.90
2018-05-26T21:13:24.989Z,7.00
2018-05-26T21:15:52.436Z,6.70
2018-05-26T21:18:19.895Z,7.03
2018-05-26T21:20:47.327Z,7.03
2018-05-26T21:23:14.767Z,7.47
2018-05-26T21:25:42.982Z,7.43
2018-05-26T21:28:10.428Z,7.20
2018-05-26T21:30:37.891Z,7.47
2018-05-26T21:33:05.346Z,6.77
2018-05-26T21:35:32.783Z,6.67
2018-05-26T21:38:01.012Z,6.90
2018-05-26T21:40:28.452Z,7.10
2018-05-26T21:42:55.927Z,6.53
2018-05-26T21:45:23.355Z,7.03
2018-05-26T21:47:50.800Z,7.30
2018-05-26T21:50:18.264Z,6.87
2018-05-26T21:52:45.723Z,7.60
2018-05-26T21:55:13.148Z,7.10
2018-05-26T21:57:41.368Z,7.07
2018-05-26T22:00:09.597Z,7.60
2018-05-26T22:02:37.813Z,8.10
2018-05-26T22:05:05.260Z,7.03
2018-05-26T22:07:32.723Z,7.10
2018-05-26T22:10:00.159Z,7.83
2018-05-26T22:12:27.596Z,7.57
2018-05-26T22:14:55.811Z,6.70
2018-05-26T22:17:23.243Z,6.60
2018-05-26T22:19:51.460Z,7.33
2018-05-26T22:22:18.911Z,6.90
2018-05-26T22:24:46.391Z,7.10
2018-05-26T22:27:13.831Z,7.70
2018-05-26T22:29:41.260Z,6.97
2018-05-26T22:32:08.946Z,7.37
2018-05-26T22:34:36.382Z,6.87
2018-05-26T22:37:03.843Z,6.63
2018-05-26T22:39:31.317Z,6.33
2018-05-26T22:41:58.755Z,7.53
2018-05-26T22:44:26.191Z,7.60
2018-05-26T22:46:54.423Z,7.10
2018-05-26T22:49:21.859Z,7.20
2018-05-26T22:51:49.296Z,7.23
2018-05-26T22:54:16.752Z,7.73
2018-05-26T22:56:44.199Z,6.33
2018-05-26T22:59:11.634Z,7.10
2018-05-26T23:01:39.084Z,7.40
2018-05-26T23:04:06.547Z,7.03
2018-05-26T23:06:34.609Z,7.40
2018-05-26T23:09:02.068Z,7.30
2018-05-26T23:11:29.517Z,7.47
2018-05-26T23:13:57.726Z,8.10
2018-05-26T23:16:26.050Z,7.27
2018-05-26T23:18:53.875Z,7.47
2018-05-26T23:21:22.087Z,7.40
2018-05-26T23:23:49.525Z,7.77
2018-05-26T23:26:17.164Z,7.93
2018-05-26T23:28:45.387Z,7.50
2018-05-26T23:31:12.843Z,8.10
2018-05-26T23:33:40.280Z,7.70
2018-05-26T23:36:07.711Z,8.77
2018-05-26T23:38:36.028Z,7.97
2018-05-26T23:41:03.486Z,7.60
2018-05-26T23:43:30.935Z,7.30
2018-05-26T23:45:58.393Z,7.63
2018-05-26T23:48:25.851Z,8.13
2018-05-26T23:50:53.311Z,8.10
2018-05-26T23:53:20.744Z,7.40
2018-05-26T23:55:48.227Z,7.37
2018-05-26T23:58:15.671Z,6.90
